createdAt,value
2022-10-12T00:00:10.545Z,63.44
2022-10-12T00:02:42.752Z,63.64
2022-10-12T00:05:10.215Z,63.83
2022-10-12T00:07:40.373Z,64.03
2022-10-12T00:10:08.389Z,64.14
2022-10-12T00:12:35.601Z,64.14
2022-10-12T00:15:02.873Z,64.20
2022-10-12T00:17:30.230Z,64.11
2022-10-12T00:19:57.524Z,64.25
2022-10-12T00:22:25.067Z,63.87
2022-10-12T00:24:53.894Z,63.94
2022-10-12T00:27:23.858Z,63.92
2022-10-12T00:29:50.899Z,63.79
2022-10-12T00:32:18.921Z,63.69
2022-10-12T00:34:45.805Z,63.76
2022-10-12T00:37:12.652Z,63.67
2022-10-12T00:39:39.448Z,63.79
2022-10-12T00:42:06.309Z,63.88
2022-10-12T00:44:40.068Z,64.16
2022-10-12T00:47:37.316Z,64.43
2022-10-12T00:50:16.079Z,64.71
2022-10-12T00:52:51.966Z,64.78
2022-10-12T00:55:23.525Z,64.90
2022-10-12T00:57:53.246Z,64.92
2022-10-12T01:00:20.843Z,65.05
2022-10-12T01:02:50.404Z,65.45
2022-10-12T01:05:18.716Z,65.73
2022-10-12T01:07:45.718Z,65.62
2022-10-12T01:10:12.990Z,65.65
2022-10-12T01:12:43.209Z,65.90
2022-10-12T01:15:12.220Z,65.68
2022-10-12T01:17:59.167Z,65.38
2022-10-12T01:20:38.560Z,65.30
2022-10-12T01:23:46.836Z,65.38
2022-10-12T01:26:32.249Z,65.25
2022-10-12T01:29:21.982Z,65.22
2022-10-12T01:32:00.226Z,65.20
2022-10-12T01:34:40.369Z,64.73
2022-10-12T01:37:16.421Z,65.01
2022-10-12T01:39:56.275Z,64.57
2022-10-12T01:42:45.888Z,64.75
2022-10-12T01:45:18.089Z,64.57
2022-10-12T01:47:49.041Z,64.42
2022-10-12T01:50:17.483Z,64.52
2022-10-12T01:53:02.589Z,64.27
2022-10-12T01:55:39.009Z,64.06
2022-10-12T01:58:11.602Z,64.26
2022-10-12T02:00:44.167Z,64.35
2022-10-12T02:03:21.301Z,64.19
2022-10-12T02:06:00.771Z,64.04
2022-10-12T02:09:08.100Z,63.98
2022-10-12T02:11:38.038Z,63.93
2022-10-12T02:14:18.866Z,63.91
2022-10-12T02:16:56.198Z,64.13
2022-10-12T02:19:27.265Z,63.99
2022-10-12T02:21:56.615Z,64.47
2022-10-12T02:24:24.231Z,64.13
2022-10-12T02:26:53.788Z,63.99
2022-10-12T02:29:30.703Z,63.77
2022-10-12T02:32:06.775Z,64.08
2022-10-12T02:34:36.244Z,64.13
2022-10-12T02:37:08.688Z,64.15
2022-10-12T02:40:17.358Z,64.17
2022-10-12T02:43:09.372Z,64.14
2022-10-12T02:45:40.994Z,63.93
2022-10-12T02:48:10.538Z,63.67
2022-10-12T02:50:37.641Z,63.69
2022-10-12T02:53:04.883Z,63.86
2022-10-12T02:55:32.201Z,63.85
2022-10-12T02:57:59.054Z,63.79
2022-10-12T03:00:26.172Z,63.65
2022-10-12T03:02:52.944Z,64.06
2022-10-12T03:05:19.765Z,64.15
2022-10-12T03:07:46.590Z,64.11
2022-10-12T03:10:13.439Z,64.47
2022-10-12T03:12:40.234Z,64.59
2022-10-12T03:15:08.553Z,64.39
2022-10-12T03:17:35.528Z,64.77
2022-10-12T03:20:02.472Z,64.94
2022-10-12T03:22:29.267Z,64.79
2022-10-12T03:24:56.721Z,64.66
2022-10-12T03:27:24.087Z,64.91
2022-10-12T03:29:50.887Z,65.08
2022-10-12T03:32:18.320Z,65.22
2022-10-12T03:34:45.120Z,64.94
2022-10-12T03:37:11.901Z,65.10
2022-10-12T03:39:38.739Z,65.43
2022-10-12T03:42:05.760Z,65.60
2022-10-12T03:44:32.516Z,65.10
2022-10-12T03:46:59.385Z,65.20
2022-10-12T03:49:26.169Z,65.07
2022-10-12T03:51:53.006Z,64.91
2022-10-12T03:54:19.788Z,65.11
2022-10-12T03:56:46.574Z,65.44
2022-10-12T03:59:13.322Z,64.52
2022-10-12T04:01:40.190Z,64.62
2022-10-12T04:04:07.073Z,64.97
2022-10-12T04:06:33.863Z,65.15
2022-10-12T04:09:00.618Z,64.90
2022-10-12T04:11:27.497Z,64.71
2022-10-12T04:13:54.498Z,64.80
2022-10-12T04:16:21.308Z,65.14
2022-10-12T04:18:48.085Z,65.21
2022-10-12T04:21:16.565Z,65.23
2022-10-12T04:23:43.409Z,65.07
2022-10-12T04:26:10.211Z,65.45
2022-10-12T04:28:37.274Z,65.21
2022-10-12T04:31:04.185Z,65.18
2022-10-12T04:33:30.962Z,65.25
2022-10-12T04:35:57.912Z,65.32
2022-10-12T04:38:24.764Z,65.29
2022-10-12T04:40:51.537Z,65.81
2022-10-12T04:43:18.356Z,66.22
2022-10-12T04:45:45.157Z,65.88
2022-10-12T04:48:11.910Z,65.74
2022-10-12T04:50:38.700Z,65.50
2022-10-12T04:53:05.449Z,65.67
2022-10-12T04:55:32.359Z,65.65
2022-10-12T04:58:00.747Z,66.04
2022-10-12T05:00:28.746Z,66.17
2022-10-12T05:02:55.504Z,66.05
2022-10-12T05:05:22.294Z,66.22
2022-10-12T05:07:49.161Z,66.38
2022-10-12T05:10:16.175Z,66.34
2022-10-12T05:12:43.116Z,66.36
2022-10-12T05:15:11.208Z,66.83
2022-10-12T05:17:38.269Z,66.73
2022-10-12T05:20:05.829Z,66.96
2022-10-12T05:22:32.602Z,66.86
2022-10-12T05:24:59.640Z,66.93
2022-10-12T05:27:26.467Z,66.81
2022-10-12T05:29:53.294Z,66.80
2022-10-12T05:32:20.124Z,66.96
2022-10-12T05:34:46.985Z,66.93
2022-10-12T05:37:14.069Z,66.71
2022-10-12T05:39:40.897Z,66.76
2022-10-12T05:42:07.826Z,67.23
2022-10-12T05:44:34.613Z,67.37
2022-10-12T05:47:01.503Z,67.51
2022-10-12T05:49:28.875Z,67.52
2022-10-12T05:51:55.651Z,67.26
2022-10-12T05:54:22.459Z,67.45
2022-10-12T05:56:49.282Z,67.27
2022-10-12T05:59:16.140Z,67.30
2022-10-12T06:01:43.024Z,67.44
2022-10-12T06:04:09.943Z,67.70
2022-10-12T06:06:36.847Z,67.69
2022-10-12T06:09:03.774Z,67.71
2022-10-12T06:11:32.731Z,67.37
2022-10-12T06:14:03.082Z,67.59
2022-10-12T06:16:29.891Z,67.53
2022-10-12T06:18:56.723Z,67.52
2022-10-12T06:21:38.732Z,67.63
2022-10-12T06:24:06.039Z,67.77
2022-10-12T06:26:33.227Z,67.85
2022-10-12T06:29:00.928Z,67.94
2022-10-12T06:31:28.946Z,67.63
2022-10-12T06:33:56.029Z,67.58
2022-10-12T06:36:23.802Z,67.61
2022-10-12T06:38:50.674Z,67.65
2022-10-12T06:41:17.638Z,67.55
2022-10-12T06:43:44.681Z,67.12
2022-10-12T06:46:12.070Z,67.22
2022-10-12T06:48:38.884Z,67.35
2022-10-12T06:51:05.863Z,66.98
2022-10-12T06:53:33.198Z,66.89
2022-10-12T06:56:00.127Z,66.56
2022-10-12T06:58:26.944Z,66.61
2022-10-12T07:00:53.753Z,66.57
2022-10-12T07:03:20.642Z,66.63
2022-10-12T07:05:47.485Z,66.40
2022-10-12T07:08:14.355Z,66.32
2022-10-12T07:10:41.114Z,66.36
2022-10-12T07:13:07.943Z,66.23
2022-10-12T07:15:34.740Z,66.50
2022-10-12T07:18:01.562Z,66.66
2022-10-12T07:20:28.355Z,66.12
2022-10-12T07:22:55.184Z,65.85
2022-10-12T07:25:22.445Z,65.53
2022-10-12T07:27:49.688Z,65.58
2022-10-12T07:30:16.761Z,65.35
2022-10-12T07:32:44.970Z,65.49
2022-10-12T07:35:12.021Z,65.02
2022-10-12T07:37:39.154Z,64.67
2022-10-12T07:40:06.786Z,64.89
2022-10-12T07:42:33.699Z,64.68
2022-10-12T07:45:00.461Z,64.40
2022-10-12T07:47:27.263Z,64.01
2022-10-12T07:49:54.056Z,63.53
2022-10-12T07:52:21.105Z,63.54
2022-10-12T07:54:47.931Z,63.94
2022-10-12T07:57:14.758Z,63.79
2022-10-12T07:59:41.529Z,63.95
2022-10-12T08:02:10.409Z,64.31
2022-10-12T08:04:37.286Z,64.45
2022-10-12T08:07:04.200Z,64.55
2022-10-12T08:09:31.000Z,64.52
2022-10-12T08:11:57.783Z,64.22
2022-10-12T08:14:24.621Z,64.05
2022-10-12T08:16:51.448Z,64.05
2022-10-12T08:19:18.297Z,64.01
2022-10-12T08:21:45.192Z,64.04
2022-10-12T08:24:12.803Z,64.37
2022-10-12T08:26:39.750Z,64.47
2022-10-12T08:29:08.333Z,64.45
2022-10-12T08:31:35.756Z,64.43
2022-10-12T08:34:03.074Z,64.19
2022-10-12T08:36:29.889Z,63.96
2022-10-12T08:38:56.741Z,64.16
2022-10-12T08:42:06.035Z,63.47
2022-10-12T08:44:46.746Z,63.16
2022-10-12T08:47:22.973Z,62.91
2022-10-12T08:49:51.209Z,63.39
2022-10-12T08:52:23.749Z,63.46
2022-10-12T08:54:50.661Z,64.08
2022-10-12T08:57:19.638Z,63.61
2022-10-12T08:59:47.523Z,62.87
2022-10-12T09:02:25.972Z,62.75
2022-10-12T09:04:52.726Z,62.52
2022-10-12T09:07:34.879Z,62.48
2022-10-12T09:10:37.012Z,62.96
2022-10-12T09:13:22.208Z,63.14
2022-10-12T09:15:59.200Z,62.28
2022-10-12T09:18:41.177Z,62.47
2022-10-12T09:21:18.983Z,61.96
2022-10-12T09:23:46.984Z,61.45
2022-10-12T09:26:13.746Z,62.06
2022-10-12T09:28:50.994Z,62.58
2022-10-12T09:31:50.270Z,62.20
2022-10-12T09:34:19.437Z,62.16
2022-10-12T09:36:46.608Z,61.60
2022-10-12T09:39:23.458Z,61.85
2022-10-12T09:41:52.454Z,61.60
2022-10-12T09:44:31.284Z,60.90
2022-10-12T09:47:03.087Z,60.74
2022-10-12T09:49:47.712Z,60.65
2022-10-12T09:52:17.284Z,60.43
2022-10-12T09:54:51.086Z,61.21
2022-10-12T09:57:25.017Z,61.04
2022-10-12T09:59:52.325Z,60.64
2022-10-12T10:02:21.623Z,60.45
2022-10-12T10:04:49.988Z,59.93
2022-10-12T10:07:33.535Z,60.13
2022-10-12T10:10:16.775Z,60.48
2022-10-12T10:12:56.199Z,60.01
2022-10-12T10:15:34.838Z,59.71
2022-10-12T10:18:16.118Z,59.35
2022-10-12T10:20:54.798Z,58.92
2022-10-12T10:23:32.949Z,58.40
2022-10-12T10:26:04.842Z,57.94
2022-10-12T10:28:34.296Z,57.88
2022-10-12T10:31:04.232Z,57.52
2022-10-12T10:33:34.114Z,58.26
2022-10-12T10:36:09.238Z,57.93
2022-10-12T10:38:56.638Z,55.97
2022-10-12T10:41:28.550Z,56.54
2022-10-12T10:43:55.685Z,56.37
2022-10-12T10:46:25.196Z,55.99
2022-10-12T10:48:56.561Z,55.87
2022-10-12T10:51:38.649Z,54.37
2022-10-12T10:54:23.932Z,52.87
2022-10-12T10:56:54.482Z,52.78
2022-10-12T10:59:30.434Z,51.52
2022-10-12T11:02:08.643Z,50.59
2022-10-12T11:04:41.098Z,49.14
2022-10-12T11:07:30.478Z,47.27
2022-10-12T11:10:01.276Z,47.12
2022-10-12T11:12:40.651Z,47.07
2022-10-12T11:15:38.557Z,45.76
2022-10-12T11:18:17.551Z,47.40
2022-10-12T11:21:00.058Z,44.08
2022-10-12T11:23:42.414Z,44.81
2022-10-12T11:26:23.068Z,45.25
2022-10-12T11:28:50.111Z,44.33
2022-10-12T11:31:26.984Z,44.95
2022-10-12T11:33:56.713Z,44.80
2022-10-12T11:36:26.457Z,43.73
2022-10-12T11:39:05.957Z,44.00
2022-10-12T11:42:03.090Z,42.48
2022-10-12T11:44:44.603Z,41.41
2022-10-12T11:47:29.976Z,41.82
2022-10-12T11:50:02.678Z,42.40
2022-10-12T11:52:37.388Z,42.60
2022-10-12T11:55:30.346Z,42.65
2022-10-12T11:58:10.712Z,42.80
2022-10-12T12:00:59.120Z,42.49
2022-10-12T12:03:33.445Z,42.65
2022-10-12T12:06:45.643Z,41.58
2022-10-12T12:09:19.272Z,42.63
2022-10-12T12:11:46.153Z,42.72
2022-10-12T12:14:22.137Z,42.22
2022-10-12T12:16:49.907Z,42.89
2022-10-12T12:19:38.340Z,41.41
2022-10-12T12:22:19.419Z,41.58
2022-10-12T12:25:08.497Z,41.15
2022-10-12T12:27:40.152Z,41.10
2022-10-12T12:30:32.531Z,40.93
2022-10-12T12:33:05.122Z,41.39
2022-10-12T12:35:50.407Z,40.70
2022-10-12T12:38:23.815Z,41.39
2022-10-12T12:41:03.508Z,40.16
2022-10-12T12:43:30.228Z,41.22
2022-10-12T12:46:05.432Z,41.06
2022-10-12T12:48:52.468Z,40.16
2022-10-12T12:51:23.819Z,41.11
2022-10-12T12:53:53.622Z,41.00
2022-10-12T12:56:43.522Z,40.96
2022-10-12T12:59:41.279Z,40.25
2022-10-12T13:02:35.240Z,40.19
2022-10-12T13:05:20.993Z,40.38
2022-10-12T13:08:04.048Z,38.95
2022-10-12T13:10:56.688Z,39.46
2022-10-12T13:13:50.149Z,40.23
2022-10-12T13:19:49.512Z,40.49
2022-10-12T13:22:35.064Z,40.43
2022-10-12T13:25:06.874Z,40.92
2022-10-12T13:27:43.311Z,41.11
2022-10-12T13:30:34.657Z,40.32
2022-10-12T13:33:10.773Z,40.34
2022-10-12T13:35:43.478Z,40.75
2022-10-12T13:38:16.282Z,39.73
2022-10-12T13:40:51.626Z,40.46
2022-10-12T13:43:33.675Z,40.12
2022-10-12T13:46:01.501Z,40.43
2022-10-12T13:48:57.634Z,40.93
2022-10-12T13:51:25.642Z,40.53
2022-10-12T13:53:52.567Z,41.31
2022-10-12T13:56:28.268Z,42.37
2022-10-12T13:59:05.540Z,42.66
2022-10-12T14:01:48.092Z,42.51
2022-10-12T14:04:14.887Z,42.93
2022-10-12T14:06:41.679Z,42.96
2022-10-12T14:09:28.403Z,42.74
2022-10-12T14:11:56.684Z,42.58
2022-10-12T14:14:31.126Z,43.35
2022-10-12T14:16:58.221Z,43.97
2022-10-12T14:19:40.092Z,43.64
2022-10-12T14:22:07.964Z,44.11
2022-10-12T14:24:36.716Z,44.15
2022-10-12T14:27:21.032Z,44.78
2022-10-12T14:29:48.949Z,44.43
2022-10-12T14:32:15.900Z,45.28
2022-10-12T14:34:49.093Z,45.73
2022-10-12T14:37:15.776Z,46.26
2022-10-12T14:39:48.177Z,46.60
2022-10-12T14:42:30.381Z,46.77
2022-10-12T14:44:57.597Z,47.24
2022-10-12T14:47:29.321Z,46.62
2022-10-12T14:49:58.120Z,46.48
2022-10-12T14:52:32.975Z,46.67
2022-10-12T14:55:00.028Z,46.74
2022-10-12T14:57:31.279Z,47.39
2022-10-12T14:59:58.872Z,47.26
2022-10-12T15:02:32.974Z,47.15
2022-10-12T15:05:00.802Z,47.63
2022-10-12T15:07:31.581Z,47.36
2022-10-12T15:09:58.660Z,47.34
2022-10-12T15:12:26.778Z,47.94
2022-10-12T15:14:56.271Z,47.79
2022-10-12T15:17:23.310Z,47.91
2022-10-12T15:19:51.777Z,48.21
2022-10-12T15:22:27.879Z,48.20
2022-10-12T15:24:55.422Z,48.68
2022-10-12T15:27:22.312Z,48.82
2022-10-12T15:29:49.171Z,48.91
2022-10-12T15:32:17.769Z,49.35
2022-10-12T15:34:45.721Z,49.17
2022-10-12T15:37:12.854Z,50.09
2022-10-12T15:39:40.492Z,50.27
2022-10-12T15:42:07.403Z,50.74
2022-10-12T15:44:39.485Z,50.64
2022-10-12T15:47:06.277Z,50.15
2022-10-12T15:49:33.084Z,50.66
2022-10-12T15:52:00.499Z,50.70
2022-10-12T15:54:27.306Z,50.86
2022-10-12T15:56:54.290Z,51.15
2022-10-12T15:59:21.305Z,51.12
2022-10-12T16:01:48.386Z,51.52
2022-10-12T16:04:15.782Z,51.75
2022-10-12T16:06:42.641Z,52.08
2022-10-12T16:09:10.170Z,51.98
2022-10-12T16:11:37.051Z,52.10
2022-10-12T16:14:03.968Z,51.72
2022-10-12T16:16:32.115Z,51.85
2022-10-12T16:18:58.999Z,52.21
2022-10-12T16:21:25.886Z,52.38
2022-10-12T16:23:52.728Z,52.23
2022-10-12T16:26:19.537Z,52.53
2022-10-12T16:28:46.417Z,52.54
2022-10-12T16:31:16.032Z,52.57
2022-10-12T16:33:43.213Z,52.68
2022-10-12T16:36:13.526Z,52.79
2022-10-12T16:38:40.699Z,52.92
2022-10-12T16:41:12.935Z,52.95
2022-10-12T16:43:40.110Z,53.24
2022-10-12T16:46:07.524Z,53.38
2022-10-12T16:48:34.713Z,53.63
2022-10-12T16:51:01.593Z,53.91
2022-10-12T16:53:28.427Z,54.07
2022-10-12T16:55:55.226Z,54.22
2022-10-12T16:58:22.165Z,54.20
2022-10-12T17:00:49.181Z,54.34
2022-10-12T17:03:16.166Z,54.36
2022-10-12T17:05:43.117Z,54.57
2022-10-12T17:08:15.042Z,54.66
2022-10-12T17:10:44.010Z,54.91
2022-10-12T17:13:11.155Z,54.86
2022-10-12T17:15:42.131Z,54.76
2022-10-12T17:18:09.291Z,55.21
2022-10-12T17:20:37.161Z,55.07
2022-10-12T17:23:04.230Z,55.30
2022-10-12T17:25:31.053Z,55.81
2022-10-12T17:27:57.873Z,55.64
2022-10-12T17:30:24.868Z,55.75
2022-10-12T17:32:51.728Z,55.85
2022-10-12T17:35:18.538Z,56.29
2022-10-12T17:37:45.340Z,56.29
2022-10-12T17:40:12.185Z,56.50
2022-10-12T17:42:39.309Z,57.00
2022-10-12T17:45:06.571Z,57.35
2022-10-12T17:47:33.383Z,57.78
2022-10-12T17:50:00.243Z,58.15
2022-10-12T17:52:27.076Z,58.58
2022-10-12T17:54:53.842Z,58.90
2022-10-12T17:57:21.047Z,59.09
2022-10-12T18:00:07.848Z,59.93
2022-10-12T18:02:38.263Z,59.81
2022-10-12T18:05:05.325Z,60.28
2022-10-12T18:07:32.133Z,60.58
2022-10-12T18:12:25.688Z,60.84
2022-10-12T18:14:52.440Z,60.76
2022-10-12T18:17:19.215Z,60.69
2022-10-12T18:19:47.203Z,60.86
2022-10-12T18:22:14.285Z,60.87
2022-10-12T18:24:41.454Z,60.98
2022-10-12T18:27:08.321Z,61.43
2022-10-12T18:29:35.179Z,61.36
2022-10-12T18:32:02.018Z,61.47
2022-10-12T18:34:30.954Z,61.44
2022-10-12T18:37:01.159Z,61.43
2022-10-12T18:39:27.941Z,61.60
2022-10-12T18:41:54.733Z,61.93
2022-10-12T18:44:22.199Z,62.06
2022-10-12T18:46:49.616Z,62.40
2022-10-12T18:49:16.507Z,62.20
2022-10-12T18:51:50.004Z,62.15
2022-10-12T18:54:17.536Z,62.26
2022-10-12T18:56:45.047Z,62.60
2022-10-12T18:59:13.406Z,62.78
2022-10-12T19:01:40.408Z,62.80
2022-10-12T19:04:07.278Z,63.02
2022-10-12T19:06:36.373Z,63.06
2022-10-12T19:09:04.270Z,63.13
2022-10-12T19:11:32.041Z,63.25
2022-10-12T19:14:05.385Z,63.60
2022-10-12T19:16:32.880Z,63.59
2022-10-12T19:19:04.022Z,63.73
2022-10-12T19:21:31.498Z,63.88
2022-10-12T19:24:01.679Z,64.19
2022-10-12T19:26:28.547Z,63.97
2022-10-12T19:28:57.384Z,64.09
2022-10-12T19:31:33.464Z,64.67
2022-10-12T19:34:03.651Z,64.48
2022-10-12T19:36:31.614Z,64.36
2022-10-12T19:39:00.920Z,64.55
2022-10-12T19:41:30.142Z,64.49
2022-10-12T19:43:58.594Z,64.61
2022-10-12T19:46:25.802Z,64.78
2022-10-12T19:48:54.629Z,64.77
2022-10-12T19:51:23.188Z,64.82
2022-10-12T19:53:54.232Z,64.95
2022-10-12T19:56:21.269Z,65.25
2022-10-12T19:58:49.788Z,64.52
2022-10-12T20:01:22.472Z,64.76
2022-10-12T20:03:50.659Z,65.02
2022-10-12T20:06:18.743Z,64.88
2022-10-12T20:08:46.169Z,64.98
2022-10-12T20:11:19.049Z,65.22
2022-10-12T20:13:49.763Z,65.56
2022-10-12T20:16:18.276Z,65.60
2022-10-12T20:18:45.372Z,65.51
2022-10-12T20:21:14.751Z,65.81
2022-10-12T20:23:43.101Z,65.76
2022-10-12T20:26:13.978Z,65.88
2022-10-12T20:28:41.178Z,65.74
2022-10-12T20:31:08.639Z,65.99
2022-10-12T20:33:37.238Z,65.83
2022-10-12T20:36:08.193Z,66.25
2022-10-12T20:38:34.888Z,66.69
2022-10-12T20:41:06.774Z,65.86
2022-10-12T20:43:33.612Z,66.09
2022-10-12T20:46:13.632Z,66.56
2022-10-12T20:48:40.981Z,66.67
2022-10-12T20:51:09.750Z,66.51
2022-10-12T20:53:37.851Z,66.64
2022-10-12T20:56:08.814Z,66.66
2022-10-12T20:58:35.533Z,67.22
2022-10-12T21:01:07.302Z,66.52
2022-10-12T21:03:35.036Z,66.70
2022-10-12T21:06:06.758Z,67.03
2022-10-12T21:08:34.250Z,67.13
2022-10-12T21:11:01.383Z,67.13
2022-10-12T21:13:33.060Z,67.36
2022-10-12T21:16:00.187Z,67.37
2022-10-12T21:18:27.574Z,67.51
2022-10-12T21:21:03.340Z,67.65
2022-10-12T21:23:30.268Z,67.49
2022-10-12T21:25:57.150Z,67.49
2022-10-12T21:28:24.182Z,67.63
2022-10-12T21:30:51.151Z,67.78
2022-10-12T21:33:18.510Z,67.81
2022-10-12T21:35:45.626Z,67.80
2022-10-12T21:38:12.549Z,67.96
2022-10-12T21:40:39.342Z,68.19
2022-10-12T21:43:06.156Z,68.34
2022-10-12T21:45:33.217Z,68.35
2022-10-12T21:48:00.201Z,68.42
2022-10-12T21:50:28.172Z,68.60
2022-10-12T21:53:00.016Z,68.53
2022-10-12T21:55:27.189Z,68.62
2022-10-12T21:57:53.971Z,68.71
2022-10-12T22:00:20.896Z,68.68
2022-10-12T22:02:49.260Z,68.91
2022-10-12T22:05:16.120Z,68.84
2022-10-12T22:07:43.035Z,69.12
2022-10-12T22:10:12.776Z,69.18
2022-10-12T22:12:39.785Z,69.15
2022-10-12T22:15:08.145Z,69.33
2022-10-12T22:17:35.603Z,69.39
2022-10-12T22:20:02.567Z,69.41
2022-10-12T22:22:29.626Z,69.47
2022-10-12T22:24:56.408Z,69.88
2022-10-12T22:27:25.802Z,69.71
2022-10-12T22:29:52.583Z,69.79
2022-10-12T22:32:19.653Z,69.92
2022-10-12T22:34:46.825Z,70.06
2022-10-12T22:37:13.605Z,70.22
2022-10-12T22:39:40.395Z,70.32
2022-10-12T22:42:07.188Z,70.43
2022-10-12T22:44:33.949Z,70.22
2022-10-12T22:47:00.725Z,70.24
2022-10-12T22:49:27.508Z,70.46
2022-10-12T22:51:54.382Z,70.41
2022-10-12T22:54:21.153Z,70.81
2022-10-12T22:56:48.044Z,70.83
2022-10-12T22:59:15.557Z,70.96
2022-10-12T23:01:42.453Z,70.89
2022-10-12T23:04:09.751Z,71.02
2022-10-12T23:06:37.156Z,71.11
2022-10-12T23:09:04.400Z,71.13
2022-10-12T23:11:31.557Z,71.16
2022-10-12T23:13:58.721Z,71.16
2022-10-12T23:16:31.781Z,71.36
2022-10-12T23:19:00.884Z,71.38
2022-10-12T23:21:29.534Z,71.53
2022-10-12T23:23:57.989Z,71.48
2022-10-12T23:26:26.737Z,71.35
2022-10-12T23:28:54.571Z,71.28
2022-10-12T23:31:24.267Z,71.12
2022-10-12T23:34:05.303Z,71.14
2022-10-12T23:36:34.232Z,70.85
2022-10-12T23:39:02.871Z,70.80
2022-10-12T23:41:29.714Z,70.75
2022-10-12T23:43:56.572Z,71.00
2022-10-12T23:46:23.367Z,71.07
2022-10-12T23:48:51.346Z,70.91
2022-10-12T23:51:18.237Z,71.29
2022-10-12T23:53:45.062Z,71.40
2022-10-12T23:56:11.975Z,71.43
2022-10-12T23:58:38.832Z,71.42
